sensor_id;sensor_type;location;lat;lon;timestamp;pressure;altitude;pressure_sealevel;temperature;humidity
70952;BME280;69214;55.880;37.542;2023-04-20T00:01:51;99588.13;;;7.52;40.07
70952;BME280;69214;55.880;37.542;2023-04-20T00:04:17;99586.25;;;7.52;39.88
70952;BME280;69214;55.880;37.542;2023-04-20T00:06:43;99584.56;;;7.51;40.45
70952;BME280;69214;55.880;37.542;2023-04-20T00:09:11;99593.97;;;7.55;40.19
70952;BME280;69214;55.880;37.542;2023-04-20T00:11:37;99578.94;;;7.46;40.07
70952;BME280;69214;55.880;37.542;2023-04-20T00:14:03;99586.03;;;7.47;40.28
70952;BME280;69214;55.880;37.542;2023-04-20T00:16:29;99579.97;;;7.38;40.77
70952;BME280;69214;55.880;37.542;2023-04-20T00:18:55;99586.25;;;7.39;40.50
70952;BME280;69214;55.880;37.542;2023-04-20T00:21:21;99584.78;;;7.30;40.76
70952;BME280;69214;55.880;37.542;2023-04-20T00:23:51;99582.69;;;7.19;40.22
70952;BME280;69214;55.880;37.542;2023-04-20T00:26:17;99584.13;;;7.08;41.44
70952;BME280;69214;55.880;37.542;2023-04-20T00:28:49;99577.63;;;7.02;41.17
70952;BME280;69214;55.880;37.542;2023-04-20T00:31:15;99584.94;;;7.02;41.22
70952;BME280;69214;55.880;37.542;2023-04-20T00:33:41;99589.53;;;7.01;41.29
70952;BME280;69214;55.880;37.542;2023-04-20T00:36:07;99576.59;;;7.03;42.02
70952;BME280;69214;55.880;37.542;2023-04-20T00:38:34;99575.75;;;7.03;41.81
70952;BME280;69214;55.880;37.542;2023-04-20T00:41:00;99574.31;;;7.00;41.71
70952;BME280;69214;55.880;37.542;2023-04-20T00:43:26;99586.19;;;6.99;41.79
70952;BME280;69214;55.880;37.542;2023-04-20T00:45:52;99564.88;;;6.90;41.90
70952;BME280;69214;55.880;37.542;2023-04-20T00:48:18;99578.66;;;6.88;41.83
70952;BME280;69214;55.880;37.542;2023-04-20T00:50:44;99568.81;;;6.74;41.97
70952;BME280;69214;55.880;37.542;2023-04-20T00:53:10;99572.13;;;6.63;42.19
70952;BME280;69214;55.880;37.542;2023-04-20T00:55:37;99572.53;;;6.60;42.17
70952;BME280;69214;55.880;37.542;2023-04-20T00:58:04;99542.69;;;6.53;42.33
70952;BME280;69214;55.880;37.542;2023-04-20T01:00:32;99560.44;;;6.69;42.76
70952;BME280;69214;55.880;37.542;2023-04-20T01:02:58;99557.13;;;6.67;42.55
70952;BME280;69214;55.880;37.542;2023-04-20T01:05:24;99551.88;;;6.65;42.91
70952;BME280;69214;55.880;37.542;2023-04-20T01:07:50;99554.81;;;6.64;42.71
70952;BME280;69214;55.880;37.542;2023-04-20T01:10:15;99549.16;;;6.59;42.69
70952;BME280;69214;55.880;37.542;2023-04-20T01:12:42;99547.69;;;6.56;42.35
70952;BME280;69214;55.880;37.542;2023-04-20T01:15:09;99538.72;;;6.56;42.85
70952;BME280;69214;55.880;37.542;2023-04-20T01:17:36;99544.34;;;6.54;42.55
70952;BME280;69214;55.880;37.542;2023-04-20T01:20:08;99547.47;;;6.51;42.42
70952;BME280;69214;55.880;37.542;2023-04-20T01:22:46;99542.66;;;6.46;42.71
70952;BME280;69214;55.880;37.542;2023-04-20T01:25:13;99540.31;;;6.37;43.33
70952;BME280;69214;55.880;37.542;2023-04-20T01:27:39;99535.28;;;6.27;44.19
70952;BME280;69214;55.880;37.542;2023-04-20T01:30:07;99539.88;;;6.27;43.85
70952;BME280;69214;55.880;37.542;2023-04-20T01:32:36;99535.47;;;6.19;44.07
70952;BME280;69214;55.880;37.542;2023-04-20T01:35:02;99538.34;;;6.11;44.25
70952;BME280;69214;55.880;37.542;2023-04-20T01:37:29;99523.25;;;5.95;44.47
70952;BME280;69214;55.880;37.542;2023-04-20T01:39:55;99536.84;;;6.02;44.53
70952;BME280;69214;55.880;37.542;2023-04-20T01:42:21;99538.88;;;5.93;44.74
70952;BME280;69214;55.880;37.542;2023-04-20T01:44:48;99539.63;;;5.87;44.48
70952;BME280;69214;55.880;37.542;2023-04-20T01:47:14;99529.41;;;5.82;44.88
70952;BME280;69214;55.880;37.542;2023-04-20T01:49:39;99528.53;;;5.75;44.75
70952;BME280;69214;55.880;37.542;2023-04-20T01:52:07;99535.56;;;5.70;44.95
70952;BME280;69214;55.880;37.542;2023-04-20T01:54:32;99515.91;;;5.54;45.10
70952;BME280;69214;55.880;37.542;2023-04-20T01:57:00;99530.03;;;5.50;45.37
70952;BME280;69214;55.880;37.542;2023-04-20T01:59:27;99528.13;;;5.44;45.75
70952;BME280;69214;55.880;37.542;2023-04-20T02:01:52;99534.31;;;5.38;46.16
70952;BME280;69214;55.880;37.542;2023-04-20T02:04:19;99520.97;;;5.36;46.11
70952;BME280;69214;55.880;37.542;2023-04-20T02:06:45;99521.38;;;5.33;46.05
70952;BME280;69214;55.880;37.542;2023-04-20T02:09:10;99518.66;;;5.33;46.56
70952;BME280;69214;55.880;37.542;2023-04-20T02:11:36;99519.06;;;5.30;46.00
70952;BME280;69214;55.880;37.542;2023-04-20T02:14:04;99526.53;;;5.28;46.75
70952;BME280;69214;55.880;37.542;2023-04-20T02:16:30;99520.47;;;5.26;46.36
70952;BME280;69214;55.880;37.542;2023-04-20T02:18:56;99513.59;;;5.24;46.82
70952;BME280;69214;55.880;37.542;2023-04-20T02:21:22;99525.91;;;5.26;47.05
70952;BME280;69214;55.880;37.542;2023-04-20T02:23:48;99518.38;;;5.21;46.79
70952;BME280;69214;55.880;37.542;2023-04-20T02:26:13;99527.97;;;5.24;46.86
70952;BME280;69214;55.880;37.542;2023-04-20T02:28:41;99521.72;;;5.24;46.86
70952;BME280;69214;55.880;37.542;2023-04-20T02:31:07;99521.53;;;5.25;47.41
70952;BME280;69214;55.880;37.542;2023-04-20T02:33:33;99516.75;;;5.27;47.66
70952;BME280;69214;55.880;37.542;2023-04-20T02:35:58;99522.41;;;5.32;46.91
70952;BME280;69214;55.880;37.542;2023-04-20T02:38:25;99523.69;;;5.36;46.83
70952;BME280;69214;55.880;37.542;2023-04-20T02:40:51;99522.47;;;5.39;47.49
70952;BME280;69214;55.880;37.542;2023-04-20T02:43:17;99514.34;;;5.39;46.99
70952;BME280;69214;55.880;37.542;2023-04-20T02:45:43;99517.50;;;5.42;47.39
70952;BME280;69214;55.880;37.542;2023-04-20T02:48:10;99497.06;;;5.40;47.63
70952;BME280;69214;55.880;37.542;2023-04-20T02:50:36;99507.50;;;5.43;47.01
70952;BME280;69214;55.880;37.542;2023-04-20T02:53:13;99505.09;;;5.54;48.03
70952;BME280;69214;55.880;37.542;2023-04-20T02:55:40;99511.97;;;5.57;47.38
70952;BME280;69214;55.880;37.542;2023-04-20T02:58:18;99507.84;;;5.61;47.07
70952;BME280;69214;55.880;37.542;2023-04-20T03:01:21;99510.56;;;5.68;46.49
70952;BME280;69214;55.880;37.542;2023-04-20T03:03:50;99509.97;;;5.72;47.29
70952;BME280;69214;55.880;37.542;2023-04-20T03:06:16;99515.00;;;5.75;46.87
70952;BME280;69214;55.880;37.542;2023-04-20T03:08:47;99517.31;;;5.78;46.80
70952;BME280;69214;55.880;37.542;2023-04-20T03:11:32;99517.53;;;5.83;46.98
70952;BME280;69214;55.880;37.542;2023-04-20T03:13:57;99493.78;;;5.79;47.02
70952;BME280;69214;55.880;37.542;2023-04-20T03:16:23;99498.66;;;5.90;46.93
70952;BME280;69214;55.880;37.542;2023-04-20T03:18:51;99505.78;;;5.98;46.67
70952;BME280;69214;55.880;37.542;2023-04-20T03:21:16;99499.13;;;6.00;46.57
70952;BME280;69214;55.880;37.542;2023-04-20T03:23:43;99506.03;;;6.09;46.75
70952;BME280;69214;55.880;37.542;2023-04-20T03:26:09;99490.81;;;6.08;46.23
70952;BME280;69214;55.880;37.542;2023-04-20T03:29:10;99501.94;;;6.27;46.73
70952;BME280;69214;55.880;37.542;2023-04-20T03:31:36;99485.69;;;6.27;46.60
70952;BME280;69214;55.880;37.542;2023-04-20T03:34:02;99483.84;;;6.40;46.31
70952;BME280;69214;55.880;37.542;2023-04-20T03:36:28;99497.28;;;7.21;45.91
70952;BME280;69214;55.880;37.542;2023-04-20T03:38:55;99487.47;;;8.62;43.14
70952;BME280;69214;55.880;37.542;2023-04-20T03:41:21;99492.78;;;9.14;41.96
70952;BME280;69214;55.880;37.542;2023-04-20T03:43:46;99496.44;;;9.01;41.87
70952;BME280;69214;55.880;37.542;2023-04-20T03:46:12;99486.56;;;8.75;42.17
70952;BME280;69214;55.880;37.542;2023-04-20T03:48:38;99489.81;;;8.59;42.66
70952;BME280;69214;55.880;37.542;2023-04-20T03:51:03;99485.44;;;9.14;41.80
70952;BME280;69214;55.880;37.542;2023-04-20T03:53:30;99486.66;;;10.94;40.10
70952;BME280;69214;55.880;37.542;2023-04-20T03:55:56;99472.78;;;13.26;36.58
70952;BME280;69214;55.880;37.542;2023-04-20T03:58:21;99482.56;;;15.78;33.24
70952;BME280;69214;55.880;37.542;2023-04-20T04:01:05;99481.47;;;17.75;31.07
70952;BME280;69214;55.880;37.542;2023-04-20T04:03:37;99479.66;;;18.94;29.29
70952;BME280;69214;55.880;37.542;2023-04-20T04:06:03;99477.34;;;19.80;28.42
70952;BME280;69214;55.880;37.542;2023-04-20T04:08:31;99485.94;;;20.55;27.74
70952;BME280;69214;55.880;37.542;2023-04-20T04:10:58;99479.72;;;21.71;27.00
70952;BME280;69214;55.880;37.542;2023-04-20T04:13:24;99479.81;;;22.80;25.05
70952;BME280;69214;55.880;37.542;2023-04-20T04:15:51;99476.38;;;23.33;24.47
70952;BME280;69214;55.880;37.542;2023-04-20T04:18:17;99481.94;;;23.33;24.79
70952;BME280;69214;55.880;37.542;2023-04-20T04:20:43;99482.72;;;23.70;24.37
70952;BME280;69214;55.880;37.542;2023-04-20T04:23:10;99482.28;;;24.38;23.98
70952;BME280;69214;55.880;37.542;2023-04-20T04:25:43;99468.00;;;25.40;22.87
70952;BME280;69214;55.880;37.542;2023-04-20T04:28:10;99469.59;;;25.84;22.13
70952;BME280;69214;55.880;37.542;2023-04-20T04:30:46;99475.13;;;26.48;22.28
70952;BME280;69214;55.880;37.542;2023-04-20T04:33:12;99482.63;;;27.36;21.07
70952;BME280;69214;55.880;37.542;2023-04-20T04:35:40;99469.09;;;28.04;20.92
70952;BME280;69214;55.880;37.542;2023-04-20T04:38:11;99468.69;;;28.87;21.68
70952;BME280;69214;55.880;37.542;2023-04-20T04:40:37;99452.88;;;28.95;19.64
70952;BME280;69214;55.880;37.542;2023-04-20T04:43:06;99457.13;;;28.64;20.40
70952;BME280;69214;55.880;37.542;2023-04-20T04:45:39;99462.47;;;29.06;21.67
70952;BME280;69214;55.880;37.542;2023-04-20T04:48:07;99451.38;;;29.65;19.64
70952;BME280;69214;55.880;37.542;2023-04-20T04:50:39;99465.25;;;29.58;21.42
70952;BME280;69214;55.880;37.542;2023-04-20T04:53:05;99460.84;;;29.33;19.69
70952;BME280;69214;55.880;37.542;2023-04-20T04:55:31;99454.75;;;30.15;19.28
70952;BME280;69214;55.880;37.542;2023-04-20T04:57:57;99452.44;;;31.18;18.32
70952;BME280;69214;55.880;37.542;2023-04-20T05:00:23;99448.91;;;31.83;17.85
70952;BME280;69214;55.880;37.542;2023-04-20T05:02:49;99452.41;;;32.68;17.64
70952;BME280;69214;55.880;37.542;2023-04-20T05:05:18;99456.53;;;33.90;17.47
70952;BME280;69214;55.880;37.542;2023-04-20T05:07:44;99449.81;;;35.04;15.80
70952;BME280;69214;55.880;37.542;2023-04-20T05:10:09;99435.03;;;35.47;15.40
70952;BME280;69214;55.880;37.542;2023-04-20T05:12:36;99436.13;;;35.21;15.51
70952;BME280;69214;55.880;37.542;2023-04-20T05:15:02;99441.16;;;35.56;15.49
70952;BME280;69214;55.880;37.542;2023-04-20T05:17:28;99447.38;;;35.97;15.01
70952;BME280;69214;55.880;37.542;2023-04-20T05:19:54;99440.00;;;35.71;14.60
70952;BME280;69214;55.880;37.542;2023-04-20T05:22:20;99446.59;;;35.06;15.40
70952;BME280;69214;55.880;37.542;2023-04-20T05:24:45;99447.72;;;34.91;15.82
70952;BME280;69214;55.880;37.542;2023-04-20T05:27:11;99437.13;;;35.60;15.32
70952;BME280;69214;55.880;37.542;2023-04-20T05:29:37;99436.41;;;35.95;14.89
70952;BME280;69214;55.880;37.542;2023-04-20T05:32:03;99446.56;;;35.89;15.13
70952;BME280;69214;55.880;37.542;2023-04-20T05:34:29;99439.28;;;36.17;15.03
70952;BME280;69214;55.880;37.542;2023-04-20T05:36:57;99428.28;;;36.97;16.99
70952;BME280;69214;55.880;37.542;2023-04-20T05:39:23;99433.53;;;37.02;14.67
70952;BME280;69214;55.880;37.542;2023-04-20T05:41:49;99435.56;;;37.05;13.95
70952;BME280;69214;55.880;37.542;2023-04-20T05:44:14;99440.91;;;36.53;14.81
70952;BME280;69214;55.880;37.542;2023-04-20T05:46:40;99434.81;;;36.23;14.75
70952;BME280;69214;55.880;37.542;2023-04-20T05:49:06;99427.00;;;35.66;14.71
70952;BME280;69214;55.880;37.542;2023-04-20T05:51:32;99435.38;;;35.31;15.15
70952;BME280;69214;55.880;37.542;2023-04-20T05:54:02;99424.25;;;35.01;15.71
70952;BME280;69214;55.880;37.542;2023-04-20T05:56:28;99434.22;;;34.26;15.23
70952;BME280;69214;55.880;37.542;2023-04-20T05:58:54;99427.47;;;33.97;16.56
70952;BME280;69214;55.880;37.542;2023-04-20T06:01:20;99427.19;;;33.72;15.87
70952;BME280;69214;55.880;37.542;2023-04-20T06:03:46;99412.75;;;33.81;15.86
70952;BME280;69214;55.880;37.542;2023-04-20T06:06:14;99431.03;;;33.90;16.19
70952;BME280;69214;55.880;37.542;2023-04-20T06:08:40;99429.63;;;34.58;15.59
70952;BME280;69214;55.880;37.542;2023-04-20T06:11:05;99427.41;;;35.72;14.93
70952;BME280;69214;55.880;37.542;2023-04-20T06:13:31;99428.75;;;36.35;14.40
70952;BME280;69214;55.880;37.542;2023-04-20T06:15:57;99430.75;;;36.45;14.42
70952;BME280;69214;55.880;37.542;2023-04-20T06:18:23;99425.00;;;37.06;14.33
70952;BME280;69214;55.880;37.542;2023-04-20T06:20:48;99422.19;;;36.91;14.11
70952;BME280;69214;55.880;37.542;2023-04-20T06:23:14;99433.56;;;36.88;13.89
70952;BME280;69214;55.880;37.542;2023-04-20T06:25:40;99427.09;;;36.45;14.61
70952;BME280;69214;55.880;37.542;2023-04-20T06:28:06;99436.81;;;35.90;14.26
70952;BME280;69214;55.880;37.542;2023-04-20T06:30:33;99426.94;;;35.45;15.44
70952;BME280;69214;55.880;37.542;2023-04-20T06:32:59;99424.50;;;35.51;14.87
70952;BME280;69214;55.880;37.542;2023-04-20T06:35:25;99422.22;;;36.03;14.50
70952;BME280;69214;55.880;37.542;2023-04-20T06:37:51;99418.94;;;36.86;14.08
70952;BME280;69214;55.880;37.542;2023-04-20T06:40:17;99427.78;;;37.31;13.72
70952;BME280;69214;55.880;37.542;2023-04-20T06:42:43;99415.81;;;37.64;13.61
70952;BME280;69214;55.880;37.542;2023-04-20T06:45:10;99423.75;;;38.01;13.12
70952;BME280;69214;55.880;37.542;2023-04-20T06:47:36;99419.47;;;37.72;13.47
70952;BME280;69214;55.880;37.542;2023-04-20T06:50:04;99405.78;;;38.08;15.31
70952;BME280;69214;55.880;37.542;2023-04-20T06:52:35;99417.78;;;38.81;13.79
70952;BME280;69214;55.880;37.542;2023-04-20T06:55:01;99417.16;;;39.04;13.16
70952;BME280;69214;55.880;37.542;2023-04-20T06:57:28;99409.28;;;39.15;12.91
70952;BME280;69214;55.880;37.542;2023-04-20T06:59:54;99412.22;;;39.08;12.77
70952;BME280;69214;55.880;37.542;2023-04-20T07:02:20;99406.00;;;38.35;13.06
70952;BME280;69214;55.880;37.542;2023-04-20T07:04:45;99407.97;;;37.86;12.98
70952;BME280;69214;55.880;37.542;2023-04-20T07:07:11;99408.91;;;37.61;13.72
70952;BME280;69214;55.880;37.542;2023-04-20T07:09:37;99402.03;;;37.55;13.83
70952;BME280;69214;55.880;37.542;2023-04-20T07:12:03;99405.19;;;37.79;13.03
70952;BME280;69214;55.880;37.542;2023-04-20T07:14:28;99400.06;;;38.15;13.36
70952;BME280;69214;55.880;37.542;2023-04-20T07:16:54;99402.66;;;37.88;13.50
70952;BME280;69214;55.880;37.542;2023-04-20T07:19:20;99392.94;;;36.91;13.63
70952;BME280;69214;55.880;37.542;2023-04-20T07:21:45;99390.97;;;36.24;14.14
70952;BME280;69214;55.880;37.542;2023-04-20T07:24:11;99365.38;;;36.45;13.98
70952;BME280;69214;55.880;37.542;2023-04-20T07:26:37;99388.53;;;36.22;13.97
70952;BME280;69214;55.880;37.542;2023-04-20T07:29:06;99387.75;;;36.36;14.03
70952;BME280;69214;55.880;37.542;2023-04-20T07:31:32;99377.91;;;36.69;13.67
70952;BME280;69214;55.880;37.542;2023-04-20T07:33:57;99368.63;;;35.90;14.10
70952;BME280;69214;55.880;37.542;2023-04-20T07:36:23;99379.78;;;35.26;14.21
70952;BME280;69214;55.880;37.542;2023-04-20T07:38:49;99388.31;;;34.57;14.65
70952;BME280;69214;55.880;37.542;2023-04-20T07:41:15;99371.81;;;33.78;15.11
70952;BME280;69214;55.880;37.542;2023-04-20T07:43:41;99363.50;;;33.92;15.10
70952;BME280;69214;55.880;37.542;2023-04-20T07:46:06;99368.19;;;33.77;14.73
70952;BME280;69214;55.880;37.542;2023-04-20T07:48:33;99378.53;;;32.96;14.48
70952;BME280;69214;55.880;37.542;2023-04-20T07:50:59;99365.22;;;32.70;15.03
70952;BME280;69214;55.880;37.542;2023-04-20T07:53:26;99348.34;;;34.18;14.72
70952;BME280;69214;55.880;37.542;2023-04-20T07:55:52;99363.31;;;35.67;13.40
70952;BME280;69214;55.880;37.542;2023-04-20T07:58:17;99364.59;;;35.91;13.65
70952;BME280;69214;55.880;37.542;2023-04-20T08:00:45;99345.88;;;35.76;13.85
70952;BME280;69214;55.880;37.542;2023-04-20T08:03:12;99342.06;;;35.15;13.16
70952;BME280;69214;55.880;37.542;2023-04-20T08:05:38;99361.25;;;34.70;13.32
70952;BME280;69214;55.880;37.542;2023-04-20T08:08:05;99360.59;;;34.91;13.40
70952;BME280;69214;55.880;37.542;2023-04-20T08:10:31;99341.63;;;35.06;13.25
70952;BME280;69214;55.880;37.542;2023-04-20T08:13:00;99349.72;;;33.91;12.87
70952;BME280;69214;55.880;37.542;2023-04-20T08:15:29;99350.16;;;30.83;15.29
70952;BME280;69214;55.880;37.542;2023-04-20T08:17:55;99362.19;;;27.60;16.83
70952;BME280;69214;55.880;37.542;2023-04-20T08:20:20;99340.66;;;25.30;18.63
70952;BME280;69214;55.880;37.542;2023-04-20T08:22:46;99358.19;;;23.79;19.70
70952;BME280;69214;55.880;37.542;2023-04-20T08:25:13;99352.97;;;22.29;20.72
70952;BME280;69214;55.880;37.542;2023-04-20T08:27:39;99352.63;;;21.02;22.23
70952;BME280;69214;55.880;37.542;2023-04-20T08:30:05;99341.94;;;20.21;23.09
70952;BME280;69214;55.880;37.542;2023-04-20T08:32:32;99352.47;;;19.76;24.27
70952;BME280;69214;55.880;37.542;2023-04-20T08:34:58;99355.06;;;19.38;24.82
70952;BME280;69214;55.880;37.542;2023-04-20T08:37:24;99346.44;;;19.16;24.98
70952;BME280;69214;55.880;37.542;2023-04-20T08:39:50;99345.31;;;18.88;25.07
70952;BME280;69214;55.880;37.542;2023-04-20T08:42:16;99348.88;;;18.50;25.33
70952;BME280;69214;55.880;37.542;2023-04-20T08:44:42;99344.06;;;18.26;25.48
70952;BME280;69214;55.880;37.542;2023-04-20T08:47:09;99343.81;;;18.18;25.04
70952;BME280;69214;55.880;37.542;2023-04-20T08:49:38;99347.44;;;18.13;25.31
70952;BME280;69214;55.880;37.542;2023-04-20T08:52:04;99331.81;;;17.88;25.75
70952;BME280;69214;55.880;37.542;2023-04-20T08:54:31;99328.28;;;17.77;25.95
70952;BME280;69214;55.880;37.542;2023-04-20T08:56:57;99332.91;;;17.92;25.90
70952;BME280;69214;55.880;37.542;2023-04-20T08:59:24;99346.63;;;18.12;25.06
70952;BME280;69214;55.880;37.542;2023-04-20T09:01:49;99330.59;;;18.09;25.46
70952;BME280;69214;55.880;37.542;2023-04-20T09:04:24;99322.91;;;18.01;24.72
70952;BME280;69214;55.880;37.542;2023-04-20T09:06:54;99336.09;;;18.15;25.37
70952;BME280;69214;55.880;37.542;2023-04-20T09:09:23;99317.38;;;18.06;24.93
70952;BME280;69214;55.880;37.542;2023-04-20T09:12:19;99336.00;;;18.35;25.38
70952;BME280;69214;55.880;37.542;2023-04-20T09:14:46;99326.88;;;18.34;25.07
70952;BME280;69214;55.880;37.542;2023-04-20T09:17:13;99318.22;;;18.46;25.14
70952;BME280;69214;55.880;37.542;2023-04-20T09:19:40;99319.97;;;18.32;25.34
70952;BME280;69214;55.880;37.542;2023-04-20T09:22:07;99328.47;;;18.45;25.25
70952;BME280;69214;55.880;37.542;2023-04-20T09:24:35;99309.84;;;18.61;24.96
70952;BME280;69214;55.880;37.542;2023-04-20T09:27:15;99331.59;;;19.07;23.91
70952;BME280;69214;55.880;37.542;2023-04-20T09:29:41;99321.69;;;19.30;24.39
70952;BME280;69214;55.880;37.542;2023-04-20T09:32:07;99314.09;;;19.40;24.07
70952;BME280;69214;55.880;37.542;2023-04-20T09:34:43;99308.88;;;19.10;24.06
70952;BME280;69214;55.880;37.542;2023-04-20T09:37:09;99320.97;;;18.90;24.83
70952;BME280;69214;55.880;37.542;2023-04-20T09:39:39;99318.38;;;18.70;24.91
70952;BME280;69214;55.880;37.542;2023-04-20T09:42:10;99317.03;;;18.57;24.77
70952;BME280;69214;55.880;37.542;2023-04-20T09:44:37;99306.63;;;18.44;25.23
70952;BME280;69214;55.880;37.542;2023-04-20T09:47:03;99292.94;;;18.29;25.65
70952;BME280;69214;55.880;37.542;2023-04-20T09:49:30;99306.06;;;18.03;25.06
70952;BME280;69214;55.880;37.542;2023-04-20T09:51:57;99318.00;;;17.88;25.29
70952;BME280;69214;55.880;37.542;2023-04-20T09:54:27;99307.56;;;17.80;25.26
70952;BME280;69214;55.880;37.542;2023-04-20T09:56:53;99308.97;;;17.72;25.53
70952;BME280;69214;55.880;37.542;2023-04-20T09:59:20;99291.31;;;17.63;25.39
70952;BME280;69214;55.880;37.542;2023-04-20T10:01:46;99304.88;;;17.49;25.53
70952;BME280;69214;55.880;37.542;2023-04-20T10:04:12;99299.09;;;17.46;25.54
70952;BME280;69214;55.880;37.542;2023-04-20T10:06:39;99282.81;;;17.49;25.51
70952;BME280;69214;55.880;37.542;2023-04-20T10:09:21;99300.75;;;17.52;25.23
70952;BME280;69214;55.880;37.542;2023-04-20T10:11:47;99296.28;;;17.71;24.91
70952;BME280;69214;55.880;37.542;2023-04-20T10:14:18;99297.28;;;17.96;24.64
70952;BME280;69214;55.880;37.542;2023-04-20T10:16:45;99287.50;;;18.13;24.52
70952;BME280;69214;55.880;37.542;2023-04-20T10:19:22;99276.78;;;18.46;24.43
70952;BME280;69214;55.880;37.542;2023-04-20T10:21:49;99274.28;;;18.84;24.06
70952;BME280;69214;55.880;37.542;2023-04-20T10:24:27;99278.78;;;19.03;23.67
70952;BME280;69214;55.880;37.542;2023-04-20T10:26:53;99278.94;;;19.17;23.87
70952;BME280;69214;55.880;37.542;2023-04-20T10:29:24;99278.09;;;19.17;23.74
70952;BME280;69214;55.880;37.542;2023-04-20T10:31:51;99281.69;;;19.17;23.98
70952;BME280;69214;55.880;37.542;2023-04-20T10:34:31;99275.69;;;19.10;24.05
70952;BME280;69214;55.880;37.542;2023-04-20T10:37:10;99290.38;;;19.05;23.76
70952;BME280;69214;55.880;37.542;2023-04-20T10:39:46;99263.59;;;19.01;24.10
70952;BME280;69214;55.880;37.542;2023-04-20T10:42:13;99275.69;;;19.10;24.27
70952;BME280;69214;55.880;37.542;2023-04-20T10:44:49;99280.44;;;19.04;25.08
70952;BME280;69214;55.880;37.542;2023-04-20T10:47:15;99275.16;;;18.79;25.35
70952;BME280;69214;55.880;37.542;2023-04-20T10:49:42;99265.72;;;18.46;25.96
70952;BME280;69214;55.880;37.542;2023-04-20T10:52:09;99276.91;;;18.31;25.85
70952;BME280;69214;55.880;37.542;2023-04-20T10:54:39;99263.16;;;18.21;25.69
70952;BME280;69214;55.880;37.542;2023-04-20T10:57:05;99282.84;;;18.09;26.37
70952;BME280;69214;55.880;37.542;2023-04-20T10:59:32;99278.16;;;18.04;26.30
70952;BME280;69214;55.880;37.542;2023-04-20T11:01:59;99266.00;;;18.05;27.03
70952;BME280;69214;55.880;37.542;2023-04-20T11:04:32;99249.16;;;18.07;26.12
70952;BME280;69214;55.880;37.542;2023-04-20T11:07:06;99265.53;;;17.93;25.62
70952;BME280;69214;55.880;37.542;2023-04-20T11:09:33;99262.34;;;17.71;26.70
70952;BME280;69214;55.880;37.542;2023-04-20T11:12:04;99254.69;;;17.47;26.55
70952;BME280;69214;55.880;37.542;2023-04-20T11:14:32;99248.38;;;17.37;27.31
70952;BME280;69214;55.880;37.542;2023-04-20T11:16:58;99250.63;;;17.25;27.88
70952;BME280;69214;55.880;37.542;2023-04-20T11:19:26;99249.84;;;17.09;27.68
70952;BME280;69214;55.880;37.542;2023-04-20T11:21:52;99247.97;;;16.84;28.15
70952;BME280;69214;55.880;37.542;2023-04-20T11:24:24;99233.91;;;16.55;28.19
70952;BME280;69214;55.880;37.542;2023-04-20T11:26:50;99246.31;;;16.37;28.35
70952;BME280;69214;55.880;37.542;2023-04-20T11:29:31;99235.28;;;16.22;28.56
70952;BME280;69214;55.880;37.542;2023-04-20T11:32:10;99231.69;;;16.01;27.92
70952;BME280;69214;55.880;37.542;2023-04-20T11:34:37;99239.38;;;15.94;28.90
70952;BME280;69214;55.880;37.542;2023-04-20T11:37:04;99236.63;;;15.94;29.42
70952;BME280;69214;55.880;37.542;2023-04-20T11:39:31;99223.97;;;15.98;29.51
70952;BME280;69214;55.880;37.542;2023-04-20T11:41:58;99220.69;;;16.11;29.37
70952;BME280;69214;55.880;37.542;2023-04-20T11:44:24;99225.91;;;16.13;29.30
70952;BME280;69214;55.880;37.542;2023-04-20T11:46:51;99195.34;;;16.09;30.00
70952;BME280;69214;55.880;37.542;2023-04-20T11:49:25;99217.09;;;16.11;28.51
70952;BME280;69214;55.880;37.542;2023-04-20T11:51:54;99221.78;;;16.00;28.53
70952;BME280;69214;55.880;37.542;2023-04-20T11:54:19;99209.66;;;15.91;29.43
70952;BME280;69214;55.880;37.542;2023-04-20T11:56:46;99212.66;;;15.84;29.36
70952;BME280;69214;55.880;37.542;2023-04-20T11:59:12;99194.50;;;15.78;29.57
70952;BME280;69214;55.880;37.542;2023-04-20T12:01:39;99197.25;;;15.78;29.50
70952;BME280;69214;55.880;37.542;2023-04-20T12:04:05;99203.03;;;15.77;29.90
70952;BME280;69214;55.880;37.542;2023-04-20T12:06:31;99192.31;;;15.91;29.33
70952;BME280;69214;55.880;37.542;2023-04-20T12:08:57;99184.88;;;15.96;29.30
70952;BME280;69214;55.880;37.542;2023-04-20T12:11:23;99194.81;;;16.12;29.35
70952;BME280;69214;55.880;37.542;2023-04-20T12:13:49;99192.34;;;16.16;29.27
70952;BME280;69214;55.880;37.542;2023-04-20T12:16:15;99180.22;;;16.12;28.84
70952;BME280;69214;55.880;37.542;2023-04-20T12:18:41;99189.28;;;16.02;28.81
70952;BME280;69214;55.880;37.542;2023-04-20T12:21:07;99181.03;;;15.97;28.92
70952;BME280;69214;55.880;37.542;2023-04-20T12:23:33;99182.16;;;16.06;29.11
70952;BME280;69214;55.880;37.542;2023-04-20T12:26:02;99184.63;;;16.28;28.58
70952;BME280;69214;55.880;37.542;2023-04-20T12:28:29;99157.88;;;16.49;28.88
70952;BME280;69214;55.880;37.542;2023-04-20T12:30:55;99173.88;;;16.67;28.68
70952;BME280;69214;55.880;37.542;2023-04-20T12:33:21;99156.22;;;16.63;28.65
70952;BME280;69214;55.880;37.542;2023-04-20T12:35:47;99147.69;;;16.60;28.29
70952;BME280;69214;55.880;37.542;2023-04-20T12:38:15;99161.72;;;16.58;28.60
70952;BME280;69214;55.880;37.542;2023-04-20T12:40:42;99161.75;;;16.48;28.55
70952;BME280;69214;55.880;37.542;2023-04-20T12:43:08;99137.53;;;16.30;28.72
70952;BME280;69214;55.880;37.542;2023-04-20T12:45:33;99154.06;;;16.30;28.97
70952;BME280;69214;55.880;37.542;2023-04-20T12:48:00;99150.22;;;16.20;28.87
70952;BME280;69214;55.880;37.542;2023-04-20T12:50:25;99140.56;;;16.08;29.14
70952;BME280;69214;55.880;37.542;2023-04-20T12:52:51;99142.50;;;16.02;29.39
70952;BME280;69214;55.880;37.542;2023-04-20T12:55:18;99116.91;;;16.02;29.32